sensor_id;sensor_type;location;lat;lon;timestamp;temperature;humidity
17284;DHT22;8760;52.248;20.952;2023-02-01T00:02:05;3.00;99.90
17284;DHT22;8760;52.248;20.952;2023-02-01T00:04:32;3.10;99.90
17284;DHT22;8760;52.248;20.952;2023-02-01T00:06:59;3.00;99.90
17284;DHT22;8760;52.248;20.952;2023-02-01T00:09:26;3.10;99.90
17284;DHT22;8760;52.248;20.952;2023-02-01T00:11:54;3.10;99.90
17284;DHT22;8760;52.248;20.952;2023-02-01T00:14:25;3.20;99.90
17284;DHT22;8760;52.248;20.952;2023-02-01T00:16:51;3.20;99.90
17284;DHT22;8760;52.248;20.952;2023-02-01T00:19:18;3.20;99.90
17284;DHT22;8760;52.248;20.952;2023-02-01T00:21:45;3.20;99.90
17284;DHT22;8760;52.248;20.952;2023-02-01T00:24:12;3.20;99.90
17284;DHT22;8760;52.248;20.952;2023-02-01T00:26:41;3.20;99.90
17284;DHT22;8760;52.248;20.952;2023-02-01T00:29:12;3.20;99.90
17284;DHT22;8760;52.248;20.952;2023-02-01T00:31:40;3.20;99.90
17284;DHT22;8760;52.248;20.952;2023-02-01T00:34:09;3.20;99.90
17284;DHT22;8760;52.248;20.952;2023-02-01T00:36:37;3.30;99.90
17284;DHT22;8760;52.248;20.952;2023-02-01T00:39:03;3.30;99.90
17284;DHT22;8760;52.248;20.952;2023-02-01T00:41:30;3.30;99.90
17284;DHT22;8760;52.248;20.952;2023-02-01T00:43:57;3.30;99.90
17284;DHT22;8760;52.248;20.952;2023-02-01T00:46:25;3.30;99.90
17284;DHT22;8760;52.248;20.952;2023-02-01T00:48:52;3.40;99.90
17284;DHT22;8760;52.248;20.952;2023-02-01T00:51:22;3.40;99.90
17284;DHT22;8760;52.248;20.952;2023-02-01T00:53:50;3.40;99.90
17284;DHT22;8760;52.248;20.952;2023-02-01T00:56:17;3.40;99.90
17284;DHT22;8760;52.248;20.952;2023-02-01T00:58:44;3.50;99.90
17284;DHT22;8760;52.248;20.952;2023-02-01T01:01:13;3.40;99.90
17284;DHT22;8760;52.248;20.952;2023-02-01T01:03:43;3.40;99.90
17284;DHT22;8760;52.248;20.952;2023-02-01T01:06:11;3.50;99.90
17284;DHT22;8760;52.248;20.952;2023-02-01T01:08:39;3.40;99.90
17284;DHT22;8760;52.248;20.952;2023-02-01T01:11:07;3.40;99.90
17284;DHT22;8760;52.248;20.952;2023-02-01T01:13:34;3.30;99.90
17284;DHT22;8760;52.248;20.952;2023-02-01T01:16:02;3.30;99.90
17284;DHT22;8760;52.248;20.952;2023-02-01T01:18:30;3.20;99.90
17284;DHT22;8760;52.248;20.952;2023-02-01T01:20:58;3.20;99.90
17284;DHT22;8760;52.248;20.952;2023-02-01T01:23:26;3.30;99.90
17284;DHT22;8760;52.248;20.952;2023-02-01T01:25:53;3.20;99.90
17284;DHT22;8760;52.248;20.952;2023-02-01T01:28:20;3.20;99.90
17284;DHT22;8760;52.248;20.952;2023-02-01T01:30:47;3.10;99.90
17284;DHT22;8760;52.248;20.952;2023-02-01T01:33:14;3.10;99.90
17284;DHT22;8760;52.248;20.952;2023-02-01T01:35:41;3.10;99.90
17284;DHT22;8760;52.248;20.952;2023-02-01T01:38:10;3.20;99.90
17284;DHT22;8760;52.248;20.952;2023-02-01T01:40:37;3.10;99.90
17284;DHT22;8760;52.248;20.952;2023-02-01T01:43:12;3.20;99.90
17284;DHT22;8760;52.248;20.952;2023-02-01T01:45:39;3.20;99.90
17284;DHT22;8760;52.248;20.952;2023-02-01T01:48:11;3.10;99.90
17284;DHT22;8760;52.248;20.952;2023-02-01T01:50:42;3.10;99.90
17284;DHT22;8760;52.248;20.952;2023-02-01T01:53:18;3.10;99.90
17284;DHT22;8760;52.248;20.952;2023-02-01T01:55:47;3.20;99.90
17284;DHT22;8760;52.248;20.952;2023-02-01T01:58:18;3.10;99.90
17284;DHT22;8760;52.248;20.952;2023-02-01T02:00:46;3.10;99.90
17284;DHT22;8760;52.248;20.952;2023-02-01T02:03:17;3.20;99.90
17284;DHT22;8760;52.248;20.952;2023-02-01T02:05:46;3.10;99.90
17284;DHT22;8760;52.248;20.952;2023-02-01T02:08:17;3.10;99.90
17284;DHT22;8760;52.248;20.952;2023-02-01T02:10:46;3.20;99.90
17284;DHT22;8760;52.248;20.952;2023-02-01T02:13:31;3.20;99.90
17284;DHT22;8760;52.248;20.952;2023-02-01T02:16:09;3.20;99.90
17284;DHT22;8760;52.248;20.952;2023-02-01T02:18:45;3.20;99.90
17284;DHT22;8760;52.248;20.952;2023-02-01T02:21:17;3.10;99.90
17284;DHT22;8760;52.248;20.952;2023-02-01T02:24:23;3.10;99.90
17284;DHT22;8760;52.248;20.952;2023-02-01T02:27:03;3.10;99.90
17284;DHT22;8760;52.248;20.952;2023-02-01T02:30:17;3.10;99.90
17284;DHT22;8760;52.248;20.952;2023-02-01T02:35:56;3.10;99.90
17284;DHT22;8760;52.248;20.952;2023-02-01T02:38:32;3.10;99.90
17284;DHT22;8760;52.248;20.952;2023-02-01T02:41:08;3.10;99.90
17284;DHT22;8760;52.248;20.952;2023-02-01T02:44:04;3.10;99.90
17284;DHT22;8760;52.248;20.952;2023-02-01T02:46:55;3.10;99.90
17284;DHT22;8760;52.248;20.952;2023-02-01T02:49:43;3.10;99.90
17284;DHT22;8760;52.248;20.952;2023-02-01T02:52:39;3.10;99.90
17284;DHT22;8760;52.248;20.952;2023-02-01T02:55:27;3.10;99.90
17284;DHT22;8760;52.248;20.952;2023-02-01T02:57:56;3.10;99.90
17284;DHT22;8760;52.248;20.952;2023-02-01T03:00:42;3.10;99.90
17284;DHT22;8760;52.248;20.952;2023-02-01T03:03:28;3.10;99.90
17284;DHT22;8760;52.248;20.952;2023-02-01T03:06:13;3.10;99.90
17284;DHT22;8760;52.248;20.952;2023-02-01T03:08:42;3.10;99.90
17284;DHT22;8760;52.248;20.952;2023-02-01T03:11:13;3.10;99.90
17284;DHT22;8760;52.248;20.952;2023-02-01T03:13:44;3.10;99.90
17284;DHT22;8760;52.248;20.952;2023-02-01T03:16:16;3.10;99.90
17284;DHT22;8760;52.248;20.952;2023-02-01T03:18:50;3.10;99.90
17284;DHT22;8760;52.248;20.952;2023-02-01T03:21:23;3.00;99.90
17284;DHT22;8760;52.248;20.952;2023-02-01T03:23:52;3.00;99.90
17284;DHT22;8760;52.248;20.952;2023-02-01T03:26:20;3.00;99.90
17284;DHT22;8760;52.248;20.952;2023-02-01T03:28:54;3.00;99.90
17284;DHT22;8760;52.248;20.952;2023-02-01T03:31:22;3.00;99.90
17284;DHT22;8760;52.248;20.952;2023-02-01T03:33:50;3.00;99.90
17284;DHT22;8760;52.248;20.952;2023-02-01T03:36:23;2.90;99.90
17284;DHT22;8760;52.248;20.952;2023-02-01T03:38:59;2.90;99.90
17284;DHT22;8760;52.248;20.952;2023-02-01T03:41:30;2.80;99.90
17284;DHT22;8760;52.248;20.952;2023-02-01T03:44:04;2.80;99.90
17284;DHT22;8760;52.248;20.952;2023-02-01T03:46:37;2.70;99.90
17284;DHT22;8760;52.248;20.952;2023-02-01T03:49:06;2.80;99.90
17284;DHT22;8760;52.248;20.952;2023-02-01T03:51:36;2.80;99.90
17284;DHT22;8760;52.248;20.952;2023-02-01T03:54:07;2.80;99.90
17284;DHT22;8760;52.248;20.952;2023-02-01T03:56:35;2.80;99.90
17284;DHT22;8760;52.248;20.952;2023-02-01T03:59:03;2.90;99.90
17284;DHT22;8760;52.248;20.952;2023-02-01T04:01:31;2.90;99.90
17284;DHT22;8760;52.248;20.952;2023-02-01T04:03:59;2.90;99.90
17284;DHT22;8760;52.248;20.952;2023-02-01T04:06:26;2.90;99.90
17284;DHT22;8760;52.248;20.952;2023-02-01T04:08:53;3.00;99.90
17284;DHT22;8760;52.248;20.952;2023-02-01T04:11:21;2.90;99.90
17284;DHT22;8760;52.248;20.952;2023-02-01T04:13:48;3.00;99.90
17284;DHT22;8760;52.248;20.952;2023-02-01T04:16:15;3.00;99.90
17284;DHT22;8760;52.248;20.952;2023-02-01T04:18:42;3.00;99.90
17284;DHT22;8760;52.248;20.952;2023-02-01T04:21:09;3.00;99.90
17284;DHT22;8760;52.248;20.952;2023-02-01T04:23:35;3.10;99.90
17284;DHT22;8760;52.248;20.952;2023-02-01T04:26:04;3.10;99.90
17284;DHT22;8760;52.248;20.952;2023-02-01T04:28:32;3.10;99.90
17284;DHT22;8760;52.248;20.952;2023-02-01T04:30:59;3.10;99.90
17284;DHT22;8760;52.248;20.952;2023-02-01T04:33:26;3.10;99.90
17284;DHT22;8760;52.248;20.952;2023-02-01T04:35:53;3.10;99.90
17284;DHT22;8760;52.248;20.952;2023-02-01T04:38:20;3.10;99.90
17284;DHT22;8760;52.248;20.952;2023-02-01T04:40:48;3.10;99.90
17284;DHT22;8760;52.248;20.952;2023-02-01T04:43:15;3.10;99.90
17284;DHT22;8760;52.248;20.952;2023-02-01T04:45:48;3.10;99.90
17284;DHT22;8760;52.248;20.952;2023-02-01T04:48:15;3.10;99.90
17284;DHT22;8760;52.248;20.952;2023-02-01T04:50:43;3.10;99.90
17284;DHT22;8760;52.248;20.952;2023-02-01T04:53:10;3.20;99.90
17284;DHT22;8760;52.248;20.952;2023-02-01T04:55:37;3.20;99.90
17284;DHT22;8760;52.248;20.952;2023-02-01T04:58:04;3.20;99.90
17284;DHT22;8760;52.248;20.952;2023-02-01T05:00:31;3.20;99.90
17284;DHT22;8760;52.248;20.952;2023-02-01T05:02:59;3.20;99.90
17284;DHT22;8760;52.248;20.952;2023-02-01T05:05:27;3.20;99.90
17284;DHT22;8760;52.248;20.952;2023-02-01T05:07:54;3.20;99.90
17284;DHT22;8760;52.248;20.952;2023-02-01T05:10:21;3.20;99.90
17284;DHT22;8760;52.248;20.952;2023-02-01T05:12:48;3.20;99.90
17284;DHT22;8760;52.248;20.952;2023-02-01T05:15:32;3.20;99.90
17284;DHT22;8760;52.248;20.952;2023-02-01T05:18:00;3.20;99.90
17284;DHT22;8760;52.248;20.952;2023-02-01T05:20:27;3.20;99.90
17284;DHT22;8760;52.248;20.952;2023-02-01T05:22:54;3.20;99.90
17284;DHT22;8760;52.248;20.952;2023-02-01T05:25:22;3.20;99.90
17284;DHT22;8760;52.248;20.952;2023-02-01T05:27:49;3.20;99.90
17284;DHT22;8760;52.248;20.952;2023-02-01T05:30:16;3.20;99.90
17284;DHT22;8760;52.248;20.952;2023-02-01T05:32:43;3.20;99.90
17284;DHT22;8760;52.248;20.952;2023-02-01T05:35:11;3.20;99.90
17284;DHT22;8760;52.248;20.952;2023-02-01T05:37:38;3.30;99.90
17284;DHT22;8760;52.248;20.952;2023-02-01T05:40:06;3.30;99.90
17284;DHT22;8760;52.248;20.952;2023-02-01T05:42:33;3.30;99.90
17284;DHT22;8760;52.248;20.952;2023-02-01T05:45:00;3.30;99.90
17284;DHT22;8760;52.248;20.952;2023-02-01T05:47:27;3.20;99.90
17284;DHT22;8760;52.248;20.952;2023-02-01T05:49:54;3.20;99.90
17284;DHT22;8760;52.248;20.952;2023-02-01T05:52:22;3.20;99.90
17284;DHT22;8760;52.248;20.952;2023-02-01T05:54:49;3.20;99.90
17284;DHT22;8760;52.248;20.952;2023-02-01T05:57:16;3.20;99.90
17284;DHT22;8760;52.248;20.952;2023-02-01T05:59:43;3.20;99.90
17284;DHT22;8760;52.248;20.952;2023-02-01T06:02:11;3.20;99.90
17284;DHT22;8760;52.248;20.952;2023-02-01T06:04:38;3.20;99.90
17284;DHT22;8760;52.248;20.952;2023-02-01T06:07:05;3.20;99.90
17284;DHT22;8760;52.248;20.952;2023-02-01T06:09:34;3.20;99.90
17284;DHT22;8760;52.248;20.952;2023-02-01T06:12:01;3.20;99.90
17284;DHT22;8760;52.248;20.952;2023-02-01T06:14:29;3.20;99.90
17284;DHT22;8760;52.248;20.952;2023-02-01T06:16:56;3.20;99.90
17284;DHT22;8760;52.248;20.952;2023-02-01T06:19:23;3.20;99.90
17284;DHT22;8760;52.248;20.952;2023-02-01T06:21:50;3.30;99.90
17284;DHT22;8760;52.248;20.952;2023-02-01T06:24:17;3.30;99.90
17284;DHT22;8760;52.248;20.952;2023-02-01T06:26:46;3.20;99.90
17284;DHT22;8760;52.248;20.952;2023-02-01T06:29:13;3.20;99.90
17284;DHT22;8760;52.248;20.952;2023-02-01T06:31:40;3.20;99.90
17284;DHT22;8760;52.248;20.952;2023-02-01T06:34:08;3.20;99.90
17284;DHT22;8760;52.248;20.952;2023-02-01T06:36:35;3.30;99.90
17284;DHT22;8760;52.248;20.952;2023-02-01T06:39:02;3.30;99.90
17284;DHT22;8760;52.248;20.952;2023-02-01T06:41:29;3.30;99.90
17284;DHT22;8760;52.248;20.952;2023-02-01T06:43:57;3.30;99.90
17284;DHT22;8760;52.248;20.952;2023-02-01T06:46:24;3.30;99.90
17284;DHT22;8760;52.248;20.952;2023-02-01T06:48:51;3.30;99.90
17284;DHT22;8760;52.248;20.952;2023-02-01T06:51:21;3.30;99.90
17284;DHT22;8760;52.248;20.952;2023-02-01T06:53:49;3.30;99.90
17284;DHT22;8760;52.248;20.952;2023-02-01T06:56:16;3.30;99.90
17284;DHT22;8760;52.248;20.952;2023-02-01T06:58:43;3.30;99.90
17284;DHT22;8760;52.248;20.952;2023-02-01T07:01:12;3.30;99.90
17284;DHT22;8760;52.248;20.952;2023-02-01T07:03:39;3.30;99.90
17284;DHT22;8760;52.248;20.952;2023-02-01T07:06:07;3.30;99.90
17284;DHT22;8760;52.248;20.952;2023-02-01T07:08:36;3.30;99.90
17284;DHT22;8760;52.248;20.952;2023-02-01T07:11:04;3.30;99.90
17284;DHT22;8760;52.248;20.952;2023-02-01T07:13:31;3.30;99.90
17284;DHT22;8760;52.248;20.952;2023-02-01T07:15:59;3.30;99.90
17284;DHT22;8760;52.248;20.952;2023-02-01T07:18:28;3.30;99.90
17284;DHT22;8760;52.248;20.952;2023-02-01T07:20:56;3.30;99.90
17284;DHT22;8760;52.248;20.952;2023-02-01T07:23:23;3.30;99.90
17284;DHT22;8760;52.248;20.952;2023-02-01T07:25:53;3.30;99.90
17284;DHT22;8760;52.248;20.952;2023-02-01T07:28:21;3.30;99.90
17284;DHT22;8760;52.248;20.952;2023-02-01T07:30:48;3.30;99.90
17284;DHT22;8760;52.248;20.952;2023-02-01T07:33:18;3.30;99.90
17284;DHT22;8760;52.248;20.952;2023-02-01T07:35:46;3.20;99.90
17284;DHT22;8760;52.248;20.952;2023-02-01T07:38:13;3.30;99.90
17284;DHT22;8760;52.248;20.952;2023-02-01T07:40:40;3.30;99.90
17284;DHT22;8760;52.248;20.952;2023-02-01T07:43:08;3.30;99.90
17284;DHT22;8760;52.248;20.952;2023-02-01T07:45:35;3.20;99.90
17284;DHT22;8760;52.248;20.952;2023-02-01T07:48:03;3.30;99.90
17284;DHT22;8760;52.248;20.952;2023-02-01T07:50:30;3.30;99.90
17284;DHT22;8760;52.248;20.952;2023-02-01T07:52:59;3.30;99.90
17284;DHT22;8760;52.248;20.952;2023-02-01T07:55:27;3.40;99.90
17284;DHT22;8760;52.248;20.952;2023-02-01T07:57:57;3.40;99.90
17284;DHT22;8760;52.248;20.952;2023-02-01T08:00:24;3.40;99.90
17284;DHT22;8760;52.248;20.952;2023-02-01T08:03:08;3.40;99.90
17284;DHT22;8760;52.248;20.952;2023-02-01T08:05:35;3.40;99.90
17284;DHT22;8760;52.248;20.952;2023-02-01T08:08:04;3.40;99.90
17284;DHT22;8760;52.248;20.952;2023-02-01T08:10:31;3.40;99.90
17284;DHT22;8760;52.248;20.952;2023-02-01T08:12:59;3.40;99.90
17284;DHT22;8760;52.248;20.952;2023-02-01T08:15:26;3.50;99.90
17284;DHT22;8760;52.248;20.952;2023-02-01T08:17:53;3.50;99.90
17284;DHT22;8760;52.248;20.952;2023-02-01T08:20:21;3.50;99.90
17284;DHT22;8760;52.248;20.952;2023-02-01T08:22:49;3.50;99.90
17284;DHT22;8760;52.248;20.952;2023-02-01T08:25:17;3.50;99.90
17284;DHT22;8760;52.248;20.952;2023-02-01T08:27:45;3.50;99.90
17284;DHT22;8760;52.248;20.952;2023-02-01T08:30:12;3.50;99.90
17284;DHT22;8760;52.248;20.952;2023-02-01T08:32:39;3.50;99.90
17284;DHT22;8760;52.248;20.952;2023-02-01T08:35:07;3.40;99.90
17284;DHT22;8760;52.248;20.952;2023-02-01T08:37:34;3.40;99.90
17284;DHT22;8760;52.248;20.952;2023-02-01T08:40:02;3.40;99.90
17284;DHT22;8760;52.248;20.952;2023-02-01T08:42:30;3.40;99.90
17284;DHT22;8760;52.248;20.952;2023-02-01T08:45:15;3.40;99.90
17284;DHT22;8760;52.248;20.952;2023-02-01T08:47:42;3.30;99.90
17284;DHT22;8760;52.248;20.952;2023-02-01T08:50:10;3.30;99.90
17284;DHT22;8760;52.248;20.952;2023-02-01T08:52:37;3.30;99.90
17284;DHT22;8760;52.248;20.952;2023-02-01T08:55:05;3.30;99.90
17284;DHT22;8760;52.248;20.952;2023-02-01T08:57:33;3.30;99.90
17284;DHT22;8760;52.248;20.952;2023-02-01T09:00:02;3.40;99.90
17284;DHT22;8760;52.248;20.952;2023-02-01T09:02:30;3.40;99.90
17284;DHT22;8760;52.248;20.952;2023-02-01T09:04:56;3.50;99.90
17284;DHT22;8760;52.248;20.952;2023-02-01T09:07:23;3.60;99.90
17284;DHT22;8760;52.248;20.952;2023-02-01T09:09:50;3.60;99.90
17284;DHT22;8760;52.248;20.952;2023-02-01T09:12:20;3.70;99.90
17284;DHT22;8760;52.248;20.952;2023-02-01T09:14:48;3.70;99.90
17284;DHT22;8760;52.248;20.952;2023-02-01T09:17:15;3.70;99.90
17284;DHT22;8760;52.248;20.952;2023-02-01T09:19:42;3.70;99.90
17284;DHT22;8760;52.248;20.952;2023-02-01T09:22:08;3.70;99.90
17284;DHT22;8760;52.248;20.952;2023-02-01T09:24:36;3.80;99.90
17284;DHT22;8760;52.248;20.952;2023-02-01T09:27:03;3.80;99.90
17284;DHT22;8760;52.248;20.952;2023-02-01T09:29:30;3.80;99.90
17284;DHT22;8760;52.248;20.952;2023-02-01T09:31:58;3.80;99.90
17284;DHT22;8760;52.248;20.952;2023-02-01T09:34:30;3.80;99.90
17284;DHT22;8760;52.248;20.952;2023-02-01T09:36:57;3.90;99.90
17284;DHT22;8760;52.248;20.952;2023-02-01T09:39:24;3.90;99.90
17284;DHT22;8760;52.248;20.952;2023-02-01T09:41:56;3.90;99.90
17284;DHT22;8760;52.248;20.952;2023-02-01T09:44:38;3.90;99.90
17284;DHT22;8760;52.248;20.952;2023-02-01T09:47:13;4.00;99.90
17284;DHT22;8760;52.248;20.952;2023-02-01T09:49:47;4.10;99.90
17284;DHT22;8760;52.248;20.952;2023-02-01T09:52:18;4.30;99.90
17284;DHT22;8760;52.248;20.952;2023-02-01T09:54:50;4.50;1.00
17284;DHT22;8760;52.248;20.952;2023-02-01T09:57:24;4.70;1.00
17284;DHT22;8760;52.248;20.952;2023-02-01T09:59:56;5.10;99.90
17284;DHT22;8760;52.248;20.952;2023-02-01T10:02:28;5.40;1.00
17284;DHT22;8760;52.248;20.952;2023-02-01T10:04:58;5.40;99.90
17284;DHT22;8760;52.248;20.952;2023-02-01T10:07:33;5.30;1.00
17284;DHT22;8760;52.248;20.952;2023-02-01T10:10:06;5.10;1.00
17284;DHT22;8760;52.248;20.952;2023-02-01T10:12:58;5.00;99.90
17284;DHT22;8760;52.248;20.952;2023-02-01T10:15:42;4.70;1.00
17284;DHT22;8760;52.248;20.952;2023-02-01T10:18:30;4.60;99.90
17284;DHT22;8760;52.248;20.952;2023-02-01T10:21:04;4.60;99.90
17284;DHT22;8760;52.248;20.952;2023-02-01T10:26:33;4.50;1.00
17284;DHT22;8760;52.248;20.952;2023-02-01T10:29:03;4.40;84.90
17284;DHT22;8760;52.248;20.952;2023-02-01T10:31:34;4.40;99.90
17284;DHT22;8760;52.248;20.952;2023-02-01T10:34:12;4.50;99.90
17284;DHT22;8760;52.248;20.952;2023-02-01T10:36:45;4.40;99.90
17284;DHT22;8760;52.248;20.952;2023-02-01T10:39:15;4.50;99.90
17284;DHT22;8760;52.248;20.952;2023-02-01T10:41:42;4.40;99.90
17284;DHT22;8760;52.248;20.952;2023-02-01T10:44:11;4.50;99.90
17284;DHT22;8760;52.248;20.952;2023-02-01T10:46:40;4.50;99.90
17284;DHT22;8760;52.248;20.952;2023-02-01T10:49:14;4.60;99.90
17284;DHT22;8760;52.248;20.952;2023-02-01T10:51:46;4.60;99.90
17284;DHT22;8760;52.248;20.952;2023-02-01T10:54:17;4.60;99.90
17284;DHT22;8760;52.248;20.952;2023-02-01T10:56:46;4.60;99.90
17284;DHT22;8760;52.248;20.952;2023-02-01T10:59:18;4.60;99.90
17284;DHT22;8760;52.248;20.952;2023-02-01T11:01:47;4.70;99.90
17284;DHT22;8760;52.248;20.952;2023-02-01T11:04:16;4.90;1.00
17284;DHT22;8760;52.248;20.952;2023-02-01T11:06:46;5.00;1.00
17284;DHT22;8760;52.248;20.952;2023-02-01T11:09:18;5.20;1.00
17284;DHT22;8760;52.248;20.952;2023-02-01T11:11:56;5.60;1.00
17284;DHT22;8760;52.248;20.952;2023-02-01T11:14:33;5.70;1.00
17284;DHT22;8760;52.248;20.952;2023-02-01T11:17:10;5.70;1.00
17284;DHT22;8760;52.248;20.952;2023-02-01T11:19:45;5.60;5.00
17284;DHT22;8760;52.248;20.952;2023-02-01T11:22:14;5.50;99.90
17284;DHT22;8760;52.248;20.952;2023-02-01T11:24:44;5.40;1.00
17284;DHT22;8760;52.248;20.952;2023-02-01T11:27:15;5.40;99.90
17284;DHT22;8760;52.248;20.952;2023-02-01T11:29:46;5.30;1.00
17284;DHT22;8760;52.248;20.952;2023-02-01T11:32:15;5.30;1.00
17284;DHT22;8760;52.248;20.952;2023-02-01T11:34:48;5.10;1.00
17284;DHT22;8760;52.248;20.952;2023-02-01T11:37:20;5.10;1.00
17284;DHT22;8760;52.248;20.952;2023-02-01T11:39:54;4.90;99.90
17284;DHT22;8760;52.248;20.952;2023-02-01T11:42:22;4.90;99.90
17284;DHT22;8760;52.248;20.952;2023-02-01T11:44:49;4.80;99.90
17284;DHT22;8760;52.248;20.952;2023-02-01T11:47:21;4.80;99.90
17284;DHT22;8760;52.248;20.952;2023-02-01T11:49:51;4.80;1.00
17284;DHT22;8760;52.248;20.952;2023-02-01T11:52:35;4.90;1.00
17284;DHT22;8760;52.248;20.952;2023-02-01T11:55:36;4.90;1.00
17284;DHT22;8760;52.248;20.952;2023-02-01T11:58:14;5.20;99.90
17284;DHT22;8760;52.248;20.952;2023-02-01T12:01:07;5.30;17.00
17284;DHT22;8760;52.248;20.952;2023-02-01T12:03:53;5.20;1.00
17284;DHT22;8760;52.248;20.952;2023-02-01T12:06:31;5.10;99.90
17284;DHT22;8760;52.248;20.952;2023-02-01T12:11:56;5.00;1.00
17284;DHT22;8760;52.248;20.952;2023-02-01T12:14:35;5.00;1.00
17284;DHT22;8760;52.248;20.952;2023-02-01T12:20:18;5.00;1.00
17284;DHT22;8760;52.248;20.952;2023-02-01T12:22:59;5.10;1.00
17284;DHT22;8760;52.248;20.952;2023-02-01T12:25:38;5.00;1.00
17284;DHT22;8760;52.248;20.952;2023-02-01T12:28:28;5.00;1.00
17284;DHT22;8760;52.248;20.952;2023-02-01T12:34:06;5.30;1.00
17284;DHT22;8760;52.248;20.952;2023-02-01T12:36:43;5.30;1.00
17284;DHT22;8760;52.248;20.952;2023-02-01T12:39:22;5.30;1.00
17284;DHT22;8760;52.248;20.952;2023-02-01T12:41:55;5.10;1.00
17284;DHT22;8760;52.248;20.952;2023-02-01T12:44:35;5.10;1.00
17284;DHT22;8760;52.248;20.952;2023-02-01T12:47:09;5.10;1.00
17284;DHT22;8760;52.248;20.952;2023-02-01T12:49:48;5.10;1.00
17284;DHT22;8760;52.248;20.952;2023-02-01T12:52:19;5.00;1.00
17284;DHT22;8760;52.248;20.952;2023-02-01T12:54:50;5.00;1.00
17284;DHT22;8760;52.248;20.952;2023-02-01T12:57:24;5.00;1.00
17284;DHT22;8760;52.248;20.952;2023-02-01T12:59:56;5.00;1.00
17284;DHT22;8760;52.248;20.952;2023-02-01T13:02:33;5.00;1.00
17284;DHT22;8760;52.248;20.952;2023-02-01T13:05:13;5.10;1.00
17284;DHT22;8760;52.248;20.952;2023-02-01T13:07:45;5.10;1.00
17284;DHT22;8760;52.248;20.952;2023-02-01T13:10:17;5.10;1.00
17284;DHT22;8760;52.248;20.952;2023-02-01T13:12:51;5.00;1.00
17284;DHT22;8760;52.248;20.952;2023-02-01T13:15:23;4.90;1.00
17284;DHT22;8760;52.248;20.952;2023-02-01T13:17:52;4.90;1.00
17284;DHT22;8760;52.248;20.952;2023-02-01T13:20:24;4.90;1.00
17284;DHT22;8760;52.248;20.952;2023-02-01T13:22:55;4.80;1.00
17284;DHT22;8760;52.248;20.952;2023-02-01T13:25:34;4.90;1.00
17284;DHT22;8760;52.248;20.952;2023-02-01T13:28:05;4.90;1.00
17284;DHT22;8760;52.248;20.952;2023-02-01T13:30:41;4.90;1.00
17284;DHT22;8760;52.248;20.952;2023-02-01T13:33:30;4.90;1.00
17284;DHT22;8760;52.248;20.952;2023-02-01T13:39:30;4.80;1.00
17284;DHT22;8760;52.248;20.952;2023-02-01T13:42:04;4.70;1.00
17284;DHT22;8760;52.248;20.952;2023-02-01T13:44:36;4.70;1.00
17284;DHT22;8760;52.248;20.952;2023-02-01T13:47:22;4.70;1.00
17284;DHT22;8760;52.248;20.952;2023-02-01T13:49:51;4.70;1.00
17284;DHT22;8760;52.248;20.952;2023-02-01T13:52:25;4.70;1.00
17284;DHT22;8760;52.248;20.952;2023-02-01T13:55:03;4.50;1.00
17284;DHT22;8760;52.248;20.952;2023-02-01T13:57:38;4.60;1.00
17284;DHT22;8760;52.248;20.952;2023-02-01T14:00:08;4.60;1.00
17284;DHT22;8760;52.248;20.952;2023-02-01T14:02:51;4.60;1.00
17284;DHT22;8760;52.248;20.952;2023-02-01T14:08:44;4.40;1.00
17284;DHT22;8760;52.248;20.952;2023-02-01T14:11:46;4.40;1.00
17284;DHT22;8760;52.248;20.952;2023-02-01T14:14:45;4.50;1.00
17284;DHT22;8760;52.248;20.952;2023-02-01T14:17:39;4.50;1.00
17284;DHT22;8760;52.248;20.952;2023-02-01T14:23:20;4.80;1.00
17284;DHT22;8760;52.248;20.952;2023-02-01T14:26:16;5.00;1.00
17284;DHT22;8760;52.248;20.952;2023-02-01T14:28:50;5.00;1.00
17284;DHT22;8760;52.248;20.952;2023-02-01T14:31:31;5.00;1.00
17284;DHT22;8760;52.248;20.952;2023-02-01T14:34:00;4.90;1.00
17284;DHT22;8760;52.248;20.952;2023-02-01T14:36:41;4.90;1.00
17284;DHT22;8760;52.248;20.952;2023-02-01T14:39:24;4.90;1.00
17284;DHT22;8760;52.248;20.952;2023-02-01T14:41:55;4.80;1.00
17284;DHT22;8760;52.248;20.952;2023-02-01T14:44:34;4.70;1.00
17284;DHT22;8760;52.248;20.952;2023-02-01T14:47:33;4.70;1.00
17284;DHT22;8760;52.248;20.952;2023-02-01T14:50:10;4.70;1.00
17284;DHT22;8760;52.248;20.952;2023-02-01T14:52:40;4.70;1.00
17284;DHT22;8760;52.248;20.952;2023-02-01T14:55:13;4.70;1.00
17284;DHT22;8760;52.248;20.952;2023-02-01T14:57:41;4.70;1.00
17284;DHT22;8760;52.248;20.952;2023-02-01T15:00:19;4.70;1.00
17284;DHT22;8760;52.248;20.952;2023-02-01T15:02:49;4.70;1.00
17284;DHT22;8760;52.248;20.952;2023-02-01T15:05:24;4.70;1.00
17284;DHT22;8760;52.248;20.952;2023-02-01T15:07:53;4.70;1.00
17284;DHT22;8760;52.248;20.952;2023-02-01T15:10:21;4.70;1.00
17284;DHT22;8760;52.248;20.952;2023-02-01T15:12:48;4.60;1.00
17284;DHT22;8760;52.248;20.952;2023-02-01T15:15:19;4.60;1.00
17284;DHT22;8760;52.248;20.952;2023-02-01T15:17:52;4.60;1.00
17284;DHT22;8760;52.248;20.952;2023-02-01T15:20:22;4.60;1.00
17284;DHT22;8760;52.248;20.952;2023-02-01T15:22:56;4.60;1.00
17284;DHT22;8760;52.248;20.952;2023-02-01T15:25:26;4.50;1.00
17284;DHT22;8760;52.248;20.952;2023-02-01T15:27:54;4.50;1.00
17284;DHT22;8760;52.248;20.952;2023-02-01T15:30:23;4.50;1.00
17284;DHT22;8760;52.248;20.952;2023-02-01T15:33:04;4.50;1.00
17284;DHT22;8760;52.248;20.952;2023-02-01T15:35:38;4.50;1.00
17284;DHT22;8760;52.248;20.952;2023-02-01T15:38:36;4.50;1.00
17284;DHT22;8760;52.248;20.952;2023-02-01T15:41:07;4.50;1.00
17284;DHT22;8760;52.248;20.952;2023-02-01T15:43:38;4.50;1.00
17284;DHT22;8760;52.248;20.952;2023-02-01T15:46:11;4.40;1.00
17284;DHT22;8760;52.248;20.952;2023-02-01T15:48:45;4.50;1.00
17284;DHT22;8760;52.248;20.952;2023-02-01T15:51:17;4.40;1.00
17284;DHT22;8760;52.248;20.952;2023-02-01T15:53:47;4.40;1.00
17284;DHT22;8760;52.248;20.952;2023-02-01T15:56:15;4.40;1.00
17284;DHT22;8760;52.248;20.952;2023-02-01T15:58:45;4.40;1.00
17284;DHT22;8760;52.248;20.952;2023-02-01T16:01:14;4.40;1.00
17284;DHT22;8760;52.248;20.952;2023-02-01T16:03:44;4.40;1.00
17284;DHT22;8760;52.248;20.952;2023-02-01T16:06:27;4.30;1.00
17284;DHT22;8760;52.248;20.952;2023-02-01T16:08:59;4.30;1.00
17284;DHT22;8760;52.248;20.952;2023-02-01T16:11:28;4.20;1.00
17284;DHT22;8760;52.248;20.952;2023-02-01T16:13:56;4.20;1.00
17284;DHT22;8760;52.248;20.952;2023-02-01T16:16:23;4.10;8.20
17284;DHT22;8760;52.248;20.952;2023-02-01T16:18:51;4.10;17.70
17284;DHT22;8760;52.248;20.952;2023-02-01T16:21:18;4.10;17.50
17284;DHT22;8760;52.248;20.952;2023-02-01T16:23:48;4.10;24.80
17284;DHT22;8760;52.248;20.952;2023-02-01T16:26:16;4.00;19.10
17284;DHT22;8760;52.248;20.952;2023-02-01T16:28:44;4.10;20.50
17284;DHT22;8760;52.248;20.952;2023-02-01T16:31:12;4.10;16.50
17284;DHT22;8760;52.248;20.952;2023-02-01T16:33:48;4.00;16.80
17284;DHT22;8760;52.248;20.952;2023-02-01T16:36:17;4.10;24.30
17284;DHT22;8760;52.248;20.952;2023-02-01T16:38:44;4.00;29.70
17284;DHT22;8760;52.248;20.952;2023-02-01T16:41:13;4.00;18.30
17284;DHT22;8760;52.248;20.952;2023-02-01T16:43:40;4.00;15.60